Time;durP1;ratioP1;P1;durP2;ratioP2;P2;SDS_P1;SDS_P2;PMS_P1;PMS_P2;Temp;Humidity;BMP_temperature;BMP_pressure;BME280_temperature;BME280_humidity;BME280_pressure;Samples;Min_cycle;Max_cycle;Signal;HPM_P1;HPM_P2
2022/08/04 00:01:09;;;;;;;1.70;1.30;;;24.40;92.20;;;25.14;87.03;100629.09;5125067;28;20504;-69
2022/08/04 00:03:50;;;;;;;1.60;1.30;;;24.40;92.50;;;25.11;87.27;100629.19;5124964;28;20078;-69
2022/08/04 00:06:48;;;;;;;2.78;1.23;;;24.40;92.70;;;25.06;87.19;100631.13;5123707;29;20082;-70
2022/08/04 00:09:33;;;;;;;1.55;1.10;;;24.30;93.10;;;25.00;87.11;100631.25;5123324;29;20058;-69
2022/08/04 00:12:11;;;;;;;1.50;1.30;;;24.30;93.00;;;24.97;85.99;100630.44;5124835;28;20039;-70
2022/08/04 00:14:50;;;;;;;1.45;1.10;;;24.20;92.60;;;24.98;84.65;100627.75;5128912;28;20098;-69
2022/08/04 00:17:31;;;;;;;1.92;1.50;;;24.20;92.30;;;24.97;83.46;100631.31;5128799;28;20416;-68
2022/08/04 00:20:05;;;;;;;;;;;24.20;92.00;;;24.98;83.07;100633.09;5129485;28;20139;-69
2022/08/04 00:22:40;;;;;;;3.22;1.40;;;24.20;91.80;;;24.99;82.91;100633.97;5128670;28;19937;-69
2022/08/04 00:25:12;;;;;;;1.70;1.45;;;24.20;91.70;;;24.96;82.85;100634.03;5128862;28;20416;-69
2022/08/04 00:27:45;;;;;;;3.15;1.25;;;24.20;91.80;;;24.91;83.39;100636.84;5127497;29;20051;-68
2022/08/04 00:30:19;;;;;;;2.85;1.40;;;24.20;91.90;;;24.87;83.95;100629.81;5128791;28;20135;-69
2022/08/04 00:32:52;;;;;;;1.98;1.75;;;24.10;92.00;;;24.84;84.27;100637.88;5128698;28;20457;-69
2022/08/04 00:35:24;;;;;;;3.25;1.30;;;24.10;92.20;;;24.79;84.02;100632.69;5128602;28;20149;-69
2022/08/04 00:37:58;;;;;;;2.92;1.50;;;24.10;92.20;;;24.78;83.73;100627.41;5128712;28;20047;-70
2022/08/04 00:40:42;;;;;;;3.35;2.10;;;24.10;92.20;;;24.79;83.68;100632.69;5127185;28;20487;-69
2022/08/04 00:43:22;;;;;;;2.83;1.75;;;24.10;92.20;;;24.81;84.22;100616.66;5128424;28;20043;-68
2022/08/04 00:46:46;;;;;;;1.90;1.38;;;24.10;92.30;;;24.81;84.28;100614.00;5128349;28;20050;-68
2022/08/04 00:50:09;;;;;;;1.88;1.25;;;24.20;92.40;;;24.81;84.67;100611.31;5128497;28;20520;-69
2022/08/04 00:53:03;;;;;;;2.10;1.50;;;24.10;92.50;;;24.79;84.50;100610.50;5128264;28;20138;-68
2022/08/04 00:56:16;;;;;;;2.00;1.42;;;24.10;92.60;;;24.76;84.02;100611.44;5128430;28;20129;-68
2022/08/04 00:58:58;;;;;;;;;;;24.10;92.40;;;24.75;83.94;100606.16;5128680;28;20046;-69
2022/08/04 01:01:52;;;;;;;2.55;1.58;;;24.00;92.30;;;24.74;82.88;100601.75;5127830;29;19923;-68
2022/08/04 01:04:39;;;;;;;1.65;1.27;;;24.10;92.20;;;24.74;82.79;100601.75;5126937;29;20058;-69
2022/08/04 01:07:52;;;;;;;1.70;1.30;;;24.10;92.10;;;24.73;83.56;100597.34;5127961;28;20047;-69
2022/08/04 01:10:40;;;;;;;2.60;1.48;;;24.10;92.30;;;24.69;84.08;100606.31;5118229;28;20075;-68
2022/08/04 01:13:40;;;;;;;1.65;1.23;;;24.00;92.50;;;24.63;85.14;100610.88;5127949;28;20055;-69
2022/08/04 01:16:17;;;;;;;2.17;1.40;;;24.00;92.80;;;24.59;85.46;100614.56;5127725;28;20047;-69
2022/08/04 01:19:00;;;;;;;2.05;1.40;;;23.90;93.10;;;24.52;85.76;100614.78;5190313;23;20136;-83
2022/08/04 01:22:24;;;;;;;1.90;1.70;;;23.90;93.50;;;24.42;87.08;100611.44;5188269;28;20612;-84
2022/08/04 01:25:18;;;;;;;1.90;1.30;;;23.80;93.60;;;24.35;87.22;100607.19;5191136;28;20313;-83
2022/08/04 01:28:20;;;;;;;1.92;1.20;;;23.70;93.80;;;24.27;87.24;100612.66;5176180;28;20060;-84
2022/08/04 01:30:57;;;;;;;1.67;1.20;;;23.60;93.90;;;24.27;86.78;100614.47;5176532;28;20058;-86
2022/08/04 01:33:33;;;;;;;2.05;1.30;;;23.60;93.90;;;24.26;86.46;100608.25;5175718;28;20056;-84
2022/08/04 01:36:06;;;;;;;2.55;1.77;;;23.60;93.90;;;24.27;85.63;100611.81;5175492;28;20068;-84
2022/08/04 01:38:40;;;;;;;2.17;1.40;;;23.60;93.70;;;24.26;85.05;100615.38;5191677;28;20050;-85
2022/08/04 01:41:15;;;;;;;2.00;1.30;;;23.60;93.40;;;24.27;84.87;100609.13;5193926;28;20046;-84
2022/08/04 01:43:47;;;;;;;1.90;1.30;;;23.60;93.30;;;24.28;84.60;100609.09;5198711;28;20042;-84
2022/08/04 01:46:23;;;;;;;2.33;1.40;;;23.60;93.40;;;24.27;84.95;100607.34;5181710;28;20571;-84
2022/08/04 01:48:57;;;;;;;2.38;1.42;;;23.60;93.40;;;24.25;85.36;100613.59;5181990;28;20132;-85
2022/08/04 01:51:34;;;;;;;1.42;1.15;;;23.60;93.50;;;24.23;85.69;100610.97;5182723;28;20042;-86
2022/08/04 01:54:09;;;;;;;1.60;1.30;;;23.50;93.70;;;24.22;86.39;100613.69;5201139;28;20096;-86
2022/08/04 01:56:42;;;;;;;1.27;1.10;;;23.50;93.90;;;24.22;86.75;100616.34;5183637;28;20172;-85
2022/08/04 01:59:18;;;;;;;2.38;1.25;;;23.50;94.20;;;24.21;87.34;100611.94;5180090;28;20046;-85
2022/08/04 02:01:52;;;;;;;1.92;1.27;;;23.50;94.40;;;24.18;88.06;100612.00;5179941;28;20042;-85
2022/08/04 02:04:24;;;;;;;2.33;1.60;;;23.50;94.70;;;24.12;88.79;100620.13;5180622;28;20046;-85
2022/08/04 02:07:17;;;;;;;2.72;2.03;;;23.50;95.00;;;24.06;89.11;100607.84;5180664;28;20415;-85
2022/08/04 02:10:01;;;;;;;2.00;1.38;;;23.40;95.10;;;24.03;89.32;100614.13;5181167;28;20054;-84
2022/08/04 02:12:55;;;;;;;2.10;1.52;;;23.40;95.20;;;23.98;89.12;100613.34;5181183;28;20140;-84
2022/08/04 02:15:31;;;;;;;2.90;1.48;;;23.30;95.30;;;23.94;89.79;100608.16;5181609;28;20050;-85
2022/08/04 02:18:12;;;;;;;1.48;1.30;;;23.30;95.50;;;23.89;89.40;100605.59;5181628;28;20078;-86
2022/08/04 02:20:48;;;;;;;2.92;1.80;;;23.20;95.50;;;23.83;89.13;100595.94;5182704;28;20518;-84
2022/08/04 02:23:30;;;;;;;3.10;2.05;;;23.20;95.40;;;23.80;88.80;100596.03;5182712;28;20389;-83
2022/08/04 02:26:04;;;;;;;2.55;1.58;;;23.20;95.40;;;23.81;88.73;100602.22;5182707;28;20056;-86
2022/08/04 02:28:53;;;;;;;2.47;1.63;;;23.10;95.40;;;23.79;88.89;100593.38;5182683;28;20064;-85
2022/08/04 02:31:31;;;;;;;4.07;2.00;;;23.10;95.40;;;23.77;88.58;100598.75;5182712;28;20053;-84
2022/08/04 02:34:10;;;;;;;3.58;1.80;;;23.10;95.70;;;23.76;88.61;100589.03;5182488;28;20045;-84
2022/08/04 02:36:43;;;;;;;3.70;2.00;;;23.10;95.70;;;23.80;88.76;100597.81;5164570;28;20064;-85
2022/08/04 02:39:20;;;;;;;3.28;1.80;;;23.20;95.40;;;23.83;88.41;100597.75;5183106;28;20100;-85
2022/08/04 02:41:55;;;;;;;2.70;1.70;;;23.20;95.40;;;23.85;88.35;100598.56;5183242;28;20153;-85
2022/08/04 02:44:30;;;;;;;3.03;1.80;;;23.20;95.40;;;23.85;88.87;100598.56;5183538;28;20109;-85
2022/08/04 02:47:04;;;;;;;1.90;1.40;;;23.20;95.50;;;23.83;89.36;100592.41;5183016;28;20054;-85
2022/08/04 02:49:40;;;;;;;2.58;1.70;;;23.20;95.70;;;23.78;90.07;100592.50;5184582;28;20124;-85
2022/08/04 02:52:14;;;;;;;2.63;1.75;;;23.20;95.90;;;23.75;90.24;100591.72;5202787;28;20452;-84
2022/08/04 02:54:51;;;;;;;2.33;1.52;;;23.10;96.10;;;23.70;90.58;100589.16;5185441;28;20046;-83
2022/08/04 02:57:27;;;;;;;1.95;1.30;;;23.00;96.20;;;23.64;89.70;100591.94;5185843;28;20092;-86
2022/08/04 03:00:09;;;;;;;2.50;1.60;;;23.00;96.00;;;23.59;89.91;100585.81;5206912;28;20026;-86
2022/08/04 03:02:56;;;;;;;2.47;1.50;;;23.00;96.10;;;23.55;89.83;100578.84;5194524;28;20030;-85
2022/08/04 03:05:42;;;;;;;2.00;1.45;;;22.90;96.20;;;23.50;89.78;100581.59;5193783;28;20045;-84
2022/08/04 03:08:57;;;;;;;2.20;1.33;;;22.90;96.10;;;23.46;89.93;100582.53;5187048;28;20058;-85
2022/08/04 03:12:06;;;;;;;1.50;1.40;;;22.80;96.10;;;23.41;90.08;100581.78;5182082;28;20052;-84
2022/08/04 03:15:29;;;;;;;3.30;1.80;;;22.80;96.30;;;23.35;89.14;100576.59;5183054;28;20084;-84
2022/08/04 03:18:49;;;;;;;2.47;1.92;;;22.80;96.10;;;23.36;88.71;100573.03;5136508;28;20043;-85
2022/08/04 03:22:00;;;;;;;2.25;1.63;;;22.70;95.90;;;23.39;87.84;100574.72;5182634;28;20114;-82
2022/08/04 03:25:13;;;;;;;2.05;1.48;;;22.80;95.80;;;23.39;87.31;100572.94;5181463;28;20045;-86
2022/08/04 03:28:41;;;;;;;2.70;1.80;;;22.80;95.50;;;23.37;86.63;100579.22;5174175;28;20085;-83
2022/08/04 03:31:56;;;;;;;3.15;1.98;;;22.80;95.30;;;23.34;86.49;100579.28;5123026;29;20059;-86
2022/08/04 03:34:54;;;;;;;2.58;2.00;;;22.70;95.10;;;23.31;86.54;100580.22;5118820;29;20062;-84
2022/08/04 03:38:04;;;;;;;3.17;1.77;;;22.70;95.10;;;23.30;86.49;100573.16;5180028;28;20050;-84
2022/08/04 03:41:02;;;;;;;2.33;1.75;;;22.70;95.10;;;23.30;86.49;100567.84;5168149;28;20054;-83
2022/08/04 03:44:23;;;;;;;1.88;1.63;;;22.70;95.10;;;23.28;86.26;100559.91;5205841;28;20044;-87
2022/08/04 03:47:43;;;;;;;2.30;1.65;;;22.70;95.00;;;23.26;86.11;100561.69;5194691;28;20061;-85
2022/08/04 03:53:07;;;;;;;3.00;1.80;;;22.70;95.00;;;23.25;86.17;100564.41;5194053;28;20053;-85
2022/08/04 03:54:13;;;;;;;3.05;1.70;;;22.70;95.00;;;23.22;86.16;100569.78;5194080;28;20048;-84
2022/08/04 03:57:14;;;;;;;2.92;1.90;;;22.60;95.00;;;23.18;86.24;100561.00;5183275;28;20117;-86
2022/08/04 04:00:07;;;;;;;2.00;1.67;;;22.60;95.00;;;23.19;86.35;100565.38;5175336;28;20121;-85
2022/08/04 04:03:23;;;;;;;2.90;1.90;;;22.60;95.10;;;23.20;86.37;100563.59;5200102;28;20046;-85
2022/08/04 04:06:36;;;;;;;2.67;1.52;;;22.60;95.00;;;23.21;86.21;100565.34;5163554;28;20072;-86
2022/08/04 04:09:58;;;;;;;1.73;1.60;;;22.60;95.00;;;23.20;86.79;100560.94;5174823;28;20065;-84
2022/08/04 04:13:03;;;;;;;3.42;2.28;;;22.60;95.20;;;23.17;86.49;100556.59;5182992;28;20426;-84
2022/08/04 04:15:51;;;;;;;2.35;1.70;;;22.60;95.20;;;23.17;86.64;100561.91;5179352;28;20507;-84
2022/08/04 04:18:52;;;;;;;3.38;1.80;;;22.60;95.20;;;23.16;86.96;100565.47;5178279;28;20124;-85
2022/08/04 04:21:45;;;;;;;2.28;1.52;;;22.60;95.30;;;23.17;87.11;100561.03;5177681;28;20069;-83
2022/08/04 04:25:09;;;;;;;2.67;1.80;;;22.60;95.40;;;23.17;87.09;100566.34;5178282;28;20056;-85
2022/08/04 04:28:20;;;;;;;1.77;1.50;;;22.60;95.40;;;23.18;87.05;100562.78;5159936;28;20571;-85
2022/08/04 04:31:06;;;;;;;2.28;1.70;;;22.60;95.40;;;23.17;87.19;100572.53;5180455;28;20064;-87
2022/08/04 04:33:51;;;;;;;2.85;1.85;;;22.60;95.40;;;23.15;87.42;100566.38;5194268;28;20098;-88
2022/08/04 04:36:34;;;;;;;2.17;1.55;;;22.60;95.50;;;23.18;87.87;100573.41;5193956;28;20105;-86
2022/08/04 04:39:17;;;;;;;2.58;1.70;;;22.60;95.70;;;23.20;88.20;100576.91;5193016;28;20030;-84
2022/08/04 04:42:08;;;;;;;2.47;1.52;;;22.60;95.70;;;23.20;88.21;100582.22;5174783;28;20050;-84
2022/08/04 04:45:17;;;;;;;2.47;1.70;;;22.60;95.80;;;23.22;88.34;100580.44;5175114;28;20050;-85
2022/08/04 04:48:00;;;;;;;2.60;1.73;;;22.60;95.90;;;23.27;88.13;100576.72;5173915;28;20070;-85
2022/08/04 04:50:46;;;;;;;2.00;1.70;;;22.70;95.80;;;23.34;88.02;100580.13;5176302;28;20054;-85
2022/08/04 04:53:27;;;;;;;3.33;2.08;;;22.70;95.80;;;23.43;87.81;100579.97;5176125;28;20129;-85
2022/08/04 04:56:07;;;;;;;4.57;1.90;;;22.80;95.70;;;23.66;87.05;100581.25;5176121;28;20057;-84
2022/08/04 04:58:39;;;;;;;3.67;1.88;;;22.90;95.70;;;24.66;85.05;100580.63;5176483;28;20141;-84
2022/08/04 05:01:46;;;;;;;2.75;2.00;;;23.50;95.70;;;25.83;79.46;100580.88;5178483;28;20050;-84
2022/08/04 05:05:03;;;;;;;2.95;1.95;;;24.40;94.30;;;25.92;77.10;100573.41;5158921;28;20093;-85
2022/08/04 05:08:27;;;;;;;2.40;1.92;;;24.80;92.60;;;25.67;77.53;100591.09;5159359;28;20046;-85
2022/08/04 05:11:38;;;;;;;3.17;1.90;;;24.80;92.10;;;25.37;78.47;100587.56;5155207;28;20089;-83
2022/08/04 05:14:18;;;;;;;3.50;1.98;;;24.70;92.10;;;25.25;79.38;100593.25;5149174;28;20046;-85
2022/08/04 05:17:03;;;;;;;2.95;1.90;;;24.60;92.20;;;25.41;79.49;100597.22;5158318;28;20069;-84
2022/08/04 05:19:52;;;;;;;6.47;2.00;;;24.70;92.50;;;26.78;76.71;100595.47;5157504;28;20054;-85
2022/08/04 05:22:29;;;;;;;3.50;2.22;;;25.30;92.60;;;28.44;70.07;100597.22;5158011;28;20046;-85
2022/08/04 05:25:08;;;;;;;5.53;2.13;;;26.50;90.80;;;29.17;66.45;100596.72;5158620;28;20046;-85
2022/08/04 05:27:46;;;;;;;3.70;2.00;;;27.20;87.40;;;30.03;64.43;100603.44;5158529;28;20495;-84
2022/08/04 05:30:20;;;;;;;2.95;1.90;;;28.00;84.80;;;31.07;60.91;100597.22;5158714;28;20057;-85
2022/08/04 05:33:02;;;;;;;3.38;2.00;;;28.90;80.70;;;32.12;58.04;100611.19;5158707;28;20073;-86
2022/08/04 05:35:42;;;;;;;2.75;1.90;;;29.80;77.00;;;33.41;54.89;100612.47;5158197;28;20049;-85
2022/08/04 05:38:20;;;;;;;3.88;2.10;;;30.90;73.30;;;34.29;52.08;100608.53;5158131;28;20468;-85
2022/08/04 05:40:54;;;;;;;3.47;1.75;;;31.80;69.30;;;34.56;51.34;100608.56;5157947;28;20061;-84
2022/08/04 05:43:27;;;;;;;2.75;1.95;;;32.30;66.80;;;34.87;50.85;100609.13;5186071;28;20054;-85
2022/08/04 05:46:01;;;;;;;2.05;1.70;;;32.70;65.50;;;35.22;50.08;100610.28;5188282;28;20046;-86
2022/08/04 05:48:35;;;;;;;;;;;33.00;64.20;;;35.30;49.46;100612.44;5185357;28;20050;-87
2022/08/04 05:51:10;;;;;;;3.40;1.80;;;33.20;62.70;;;35.44;48.69;100608.75;5195667;28;19944;-85
2022/08/04 05:53:45;;;;;;;2.95;1.80;;;33.40;62.00;;;35.69;49.15;100614.13;5202573;28;20052;-84
2022/08/04 05:56:18;;;;;;;4.07;1.98;;;33.60;61.90;;;36.26;47.92;100615.38;5179455;28;20054;-86
2022/08/04 05:58:52;;;;;;;2.03;1.67;;;33.90;61.40;;;36.98;46.43;100609.88;5184382;28;20136;-83
2022/08/04 06:01:25;;;;;;;2.75;1.85;;;34.50;59.50;;;37.74;45.10;100614.59;5196107;28;20042;-83
2022/08/04 06:04:01;;;;;;;4.18;1.80;;;35.20;57.90;;;38.40;43.79;100612.75;5216906;28;20049;-83
2022/08/04 06:06:34;;;;;;;2.10;1.90;;;35.80;56.60;;;37.65;44.16;100615.38;5190700;28;20045;-83
2022/08/04 06:09:07;;;;;;;3.13;1.98;;;35.60;55.60;;;35.74;46.22;100611.97;5190394;28;20397;-82
2022/08/04 06:11:40;;;;;;;2.40;1.70;;;34.60;55.80;;;34.04;48.61;100609.31;5189701;28;20049;-80
2022/08/04 06:14:15;;;;;;;1.77;1.50;;;33.40;57.30;;;32.71;51.34;100614.06;5176109;28;20145;-83
2022/08/04 06:16:49;;;;;;;2.53;1.70;;;32.30;59.00;;;31.75;53.38;100601.59;5180545;28;20536;-84
2022/08/04 06:19:27;;;;;;;3.35;1.70;;;31.40;60.80;;;31.09;55.09;100597.13;5187716;28;20136;-85
2022/08/04 06:22:03;;;;;;;2.63;1.70;;;30.60;62.30;;;30.50;55.95;100598.38;5187456;28;20046;-84
2022/08/04 06:24:39;;;;;;;2.30;1.85;;;30.00;63.10;;;29.93;56.62;100598.50;5179789;28;20083;-84
2022/08/04 06:27:12;;;;;;;3.28;1.90;;;29.40;64.10;;;29.54;57.96;100595.03;5200184;28;20034;-84
2022/08/04 06:29:46;;;;;;;2.00;1.50;;;29.00;65.00;;;29.24;58.25;100590.13;5197727;28;20042;-84
2022/08/04 06:32:26;;;;;;;;;;;28.70;65.70;;;29.01;59.09;100595.63;5192473;28;20041;-83
2022/08/04 06:35:02;;;;;;;3.10;1.75;;;28.50;66.50;;;28.88;59.95;100596.16;5178848;28;19936;-82
2022/08/04 06:37:37;;;;;;;3.40;2.00;;;28.30;67.20;;;28.69;60.18;100583.59;5190921;28;20049;-84
2022/08/04 06:40:13;;;;;;;3.45;2.03;;;28.10;67.70;;;28.46;60.80;100598.03;5199357;28;20128;-84
2022/08/04 06:42:47;;;;;;;2.30;1.80;;;27.90;68.30;;;28.33;61.45;100593.16;5196554;28;20046;-84
2022/08/04 06:45:20;;;;;;;3.45;1.92;;;27.80;69.00;;;28.27;62.00;100589.84;5184212;28;20502;-84
2022/08/04 06:47:54;;;;;;;3.03;2.38;;;27.70;69.30;;;28.23;62.51;100591.75;5177347;28;20419;-84
2022/08/04 06:50:28;;;;;;;;;;;27.60;69.90;;;28.33;62.56;100597.66;5184340;28;20047;-84
2022/08/04 06:53:00;;;;;;;2.42;1.52;;;27.60;70.20;;;28.52;62.71;100603.13;5185938;28;19921;-84
2022/08/04 06:55:34;;;;;;;3.15;1.80;;;27.70;70.40;;;28.67;62.29;100591.72;5191904;28;20049;-84
2022/08/04 06:58:07;;;;;;;2.97;2.00;;;27.80;70.60;;;28.82;62.30;100600.91;5195076;28;20051;-84
2022/08/04 07:00:42;;;;;;;2.45;1.90;;;27.90;70.50;;;28.98;61.94;100602.03;5194327;28;20054;-85
2022/08/04 07:03:16;;;;;;;2.47;2.08;;;28.00;70.40;;;29.03;61.49;100594.66;5211348;28;20407;-87
2022/08/04 07:05:52;;;;;;;3.40;2.15;;;28.10;69.90;;;29.10;61.03;100600.59;5195289;28;20052;-85
2022/08/04 07:08:24;;;;;;;2.90;1.83;;;28.20;69.60;;;29.23;60.54;100595.56;5193572;28;20060;-84
2022/08/04 07:10:58;;;;;;;3.83;2.05;;;28.30;70.10;;;29.34;60.25;100599.50;5212876;28;20045;-85
2022/08/04 07:13:32;;;;;;;3.55;1.83;;;28.40;69.10;;;29.42;60.05;100596.47;5191319;28;20055;-85
2022/08/04 07:16:05;;;;;;;;;;;28.40;69.00;;;29.36;60.27;100596.75;5172744;28;20046;-83
2022/08/04 07:18:37;;;;;;;2.25;1.70;;;28.40;68.80;;;29.45;60.56;100589.13;5168789;28;19921;-85
2022/08/04 07:21:19;;;;;;;2.63;2.00;;;28.50;69.30;;;29.59;60.25;100584.94;5171859;28;20050;-83
2022/08/04 07:23:51;;;;;;;3.78;1.80;;;28.60;69.20;;;29.71;60.16;100587.91;5170591;28;20061;-84
2022/08/04 07:26:28;;;;;;;3.17;1.70;;;28.70;69.30;;;29.84;59.87;100590.00;5188357;28;20125;-80
2022/08/04 07:29:00;;;;;;;2.85;1.90;;;28.80;69.20;;;29.97;59.92;100592.03;5168875;28;20046;-83
2022/08/04 07:31:33;;;;;;;2.35;1.83;;;28.90;69.10;;;29.98;59.19;100583.00;5166608;28;20052;-81
2022/08/04 07:34:05;;;;;;;2.72;2.05;;;29.00;68.20;;;30.07;58.40;100592.47;5167235;28;20049;-83
2022/08/04 07:36:39;;;;;;;2.38;1.98;;;29.10;67.70;;;30.23;58.41;100584.53;5188568;28;20104;-83
2022/08/04 07:39:11;;;;;;;2.80;1.90;;;29.10;68.10;;;30.43;57.83;100589.75;5170607;28;20049;-84
2022/08/04 07:41:43;;;;;;;3.40;2.00;;;29.30;67.50;;;30.56;57.26;100591.84;5171075;28;20050;-85
2022/08/04 07:44:16;;;;;;;5.25;2.10;;;29.40;66.60;;;30.71;56.96;100593.75;5171204;28;20061;-85
2022/08/04 07:46:48;;;;;;;2.90;1.90;;;29.60;66.60;;;30.80;56.63;100591.47;5171158;28;20053;-85
2022/08/04 07:49:21;;;;;;;2.22;1.70;;;29.70;66.10;;;31.04;56.65;100586.63;5188739;28;20045;-85
2022/08/04 07:51:54;;;;;;;2.40;1.90;;;29.80;66.00;;;31.24;56.05;100590.97;5165349;28;20052;-84
2022/08/04 07:54:27;;;;;;;3.17;1.85;;;30.00;65.70;;;31.42;55.55;100597.13;5164378;28;20054;-84
2022/08/04 07:56:59;;;;;;;4.80;2.17;;;30.20;65.40;;;31.56;55.27;100591.88;5188252;28;20070;-84
2022/08/04 07:59:32;;;;;;;2.95;2.00;;;30.30;64.90;;;31.59;54.77;100593.53;5170707;28;20049;-83
2022/08/04 08:02:04;;;;;;;3.65;2.00;;;30.40;64.30;;;31.61;54.39;100595.16;5171614;28;20049;-83
2022/08/04 08:04:37;;;;;;;5.13;2.33;;;30.40;63.90;;;31.71;54.48;100589.28;5185419;28;20046;-84
2022/08/04 08:07:10;;;;;;;2.70;2.00;;;30.50;64.00;;;31.92;54.48;100598.88;5171738;28;20058;-86
2022/08/04 08:09:42;;;;;;;3.70;1.83;;;30.60;63.90;;;32.12;53.54;100585.09;5168346;28;20535;-86
2022/08/04 08:12:16;;;;;;;3.90;2.25;;;30.80;63.40;;;32.38;53.38;100585.44;5171530;28;20486;-86
2022/08/04 08:14:48;;;;;;;3.70;2.08;;;30.90;63.30;;;32.71;52.60;100582.53;5171085;28;20424;-86
2022/08/04 08:17:20;;;;;;;2.38;1.92;;;31.20;62.90;;;33.16;52.25;100586.97;5188436;28;20050;-86
2022/08/04 08:19:52;;;;;;;2.65;1.50;;;31.40;62.70;;;33.82;51.41;100584.63;5188688;28;20121;-86
2022/08/04 08:22:26;;;;;;;2.97;1.70;;;31.70;62.30;;;34.65;50.56;100598.94;5171059;28;20050;-85
2022/08/04 08:24:58;;;;;;;2.88;1.73;;;32.30;62.00;;;35.51;49.18;100593.78;5190025;28;20038;-85
2022/08/04 08:27:31;;;;;;;1.60;1.50;;;32.80;61.30;;;36.29;47.55;100591.56;5173628;28;20061;-85
2022/08/04 08:30:05;;;;;;;3.28;1.50;;;33.20;60.10;;;36.83;46.41;100585.59;5190800;28;20105;-85
2022/08/04 08:32:37;;;;;;;1.60;1.50;;;33.60;58.90;;;37.12;45.27;100588.78;5172611;28;20045;-86
2022/08/04 08:35:09;;;;;;;2.72;1.65;;;33.90;58.10;;;37.56;44.57;100597.97;5175449;28;20046;-86
2022/08/04 08:37:50;;;;;;;1.90;1.52;;;34.20;57.50;;;38.42;44.05;100599.03;5194624;28;20050;-85
2022/08/04 08:40:40;;;;;;;2.33;1.60;;;34.70;56.90;;;39.58;42.16;100589.72;5194753;28;20050;-84
2022/08/04 08:44:01;;;;;;;2.40;1.60;;;35.40;55.60;;;41.00;40.78;100594.72;5191845;28;20055;-83
2022/08/04 08:46:50;;;;;;;2.00;1.58;;;36.50;54.50;;;42.33;39.59;100595.25;5108486;29;20054;-83
2022/08/04 08:49:49;;;;;;;3.85;1.55;;;37.60;53.30;;;43.43;38.12;100599.31;5110654;29;20139;-85
2022/08/04 08:52:36;;;;;;;2.33;1.50;;;38.60;51.80;;;44.03;37.03;100597.34;5171928;28;20046;-85
2022/08/04 08:55:30;;;;;;;3.35;1.42;;;39.30;50.00;;;44.56;36.34;100595.19;5176310;28;20030;-84
2022/08/04 08:58:23;;;;;;;4.20;1.55;;;40.00;48.90;;;45.11;35.72;100591.69;5197550;28;20046;-84
2022/08/04 09:01:07;;;;;;;1.70;1.60;;;40.60;48.10;;;44.78;34.96;100596.38;5189084;28;20052;-84
2022/08/04 09:04:08;;;;;;;1.80;1.40;;;40.50;46.70;;;45.20;35.19;100585.16;5207041;28;20030;-83
2022/08/04 09:06:51;;;;;;;4.32;1.80;;;40.80;46.90;;;45.61;35.11;100587.75;5194593;28;20046;-83
2022/08/04 09:09:53;;;;;;;1.60;1.45;;;41.30;46.80;;;45.92;34.81;100585.03;5191425;28;20139;-83
2022/08/04 09:12:36;;;;;;;2.10;1.30;;;41.60;46.00;;;45.90;33.79;100579.69;5173638;28;20160;-82
2022/08/04 09:15:16;;;;;;;2.47;1.38;;;41.70;45.10;;;45.63;33.26;100575.53;5172102;28;20052;-85
2022/08/04 09:17:51;;;;;;;;;;;41.60;44.30;;;45.42;33.85;100578.91;5187936;28;20053;-82
2022/08/04 09:20:31;;;;;;;3.53;1.40;;;41.60;44.50;;;45.18;34.51;100573.44;5190568;28;20390;-83
2022/08/04 09:23:17;;;;;;;1.40;1.30;;;41.60;44.80;;;43.98;34.61;100571.41;5190782;28;20416;-83
2022/08/04 09:25:58;;;;;;;1.30;1.20;;;41.00;44.50;;;42.71;35.95;100571.25;5172813;28;20077;-84
2022/08/04 09:28:46;;;;;;;1.58;1.10;;;40.30;45.60;;;41.45;37.56;100566.66;5172626;28;20050;-83
2022/08/04 09:31:23;;;;;;;2.78;1.60;;;39.40;46.40;;;40.68;37.46;100551.34;5184799;28;20065;-84
2022/08/04 09:34:07;;;;;;;1.70;1.30;;;38.70;46.60;;;39.75;38.09;100558.19;5184139;28;20041;-84
2022/08/04 09:36:46;;;;;;;1.33;1.20;;;38.00;46.90;;;38.78;38.40;100552.28;5172432;28;20050;-83
2022/08/04 09:39:26;;;;;;;2.72;1.13;;;37.30;47.00;;;38.04;39.25;100558.69;5172728;28;20053;-84
2022/08/04 09:42:11;;;;;;;1.98;1.00;;;36.70;47.60;;;37.66;40.28;100558.13;5189854;28;20052;-82
2022/08/04 09:44:58;;;;;;;1.33;1.10;;;36.20;48.50;;;37.53;40.86;100556.56;5171980;28;20053;-84
2022/08/04 09:47:37;;;;;;;1.17;1.08;;;36.00;49.00;;;37.44;41.19;100555.47;5189518;28;20069;-84
2022/08/04 09:50:26;;;;;;;1.55;1.10;;;35.90;49.60;;;37.43;41.92;100556.44;5190775;28;20092;-83
2022/08/04 09:53:12;;;;;;;1.48;1.10;;;35.80;50.10;;;37.35;41.60;100554.34;5172883;28;20586;-83
2022/08/04 09:55:58;;;;;;;1.98;1.20;;;35.70;49.90;;;37.31;40.17;100563.72;5171854;28;20521;-84
2022/08/04 09:58:58;;;;;;;1.10;1.00;;;35.70;48.90;;;37.42;40.68;100561.00;5163549;28;20053;-82
2022/08/04 10:01:33;;;;;;;1.83;1.13;;;35.80;49.20;;;37.46;39.76;100567.94;5171052;28;20065;-85
2022/08/04 10:04:12;;;;;;;2.72;1.30;;;35.80;48.50;;;37.37;39.12;100565.97;5172546;28;20045;-85
2022/08/04 10:07:05;;;;;;;3.30;1.02;;;35.80;47.80;;;37.46;39.52;100567.06;5189768;28;20042;-83
2022/08/04 10:10:01;;;;;;;1.50;1.08;;;35.80;48.20;;;37.62;40.11;100566.66;5189876;28;20050;-85
2022/08/04 10:12:47;;;;;;;1.95;1.08;;;36.00;48.70;;;37.39;39.37;100560.41;5190642;28;20504;-84
2022/08/04 10:15:27;;;;;;;1.55;1.08;;;35.90;47.80;;;37.25;39.01;100558.78;5191067;28;20041;-84
2022/08/04 10:18:18;;;;;;;1.00;0.80;;;35.80;47.40;;;37.22;38.66;100559.00;5172485;28;20144;-82
2022/08/04 10:21:01;;;;;;;0.95;0.85;;;35.80;47.20;;;37.06;38.65;100558.53;5172092;28;20052;-84
2022/08/04 10:23:48;;;;;;;1.98;0.90;;;35.70;47.10;;;36.89;39.26;100562.56;5190496;28;20046;-85
2022/08/04 10:26:36;;;;;;;1.55;0.90;;;35.50;47.70;;;36.67;40.28;100553.38;5184059;28;20073;-85
2022/08/04 10:29:16;;;;;;;1.77;0.93;;;35.40;48.20;;;36.50;39.92;100563.81;5210993;28;20048;-84
2022/08/04 10:31:57;;;;;;;1.30;1.20;;;35.20;48.20;;;36.37;40.27;100556.56;5193324;28;20049;-85
2022/08/04 10:34:41;;;;;;;1.10;1.00;;;35.10;48.40;;;36.40;41.02;100555.53;5192131;28;20054;-83
2022/08/04 10:37:22;;;;;;;1.30;1.20;;;35.10;49.20;;;36.41;41.63;100552.69;5209717;28;20045;-83
2022/08/04 10:43:00;;;;;;;1.20;0.90;;;35.00;49.60;;;36.19;41.45;100558.00;5192503;28;20063;-83
2022/08/04 10:45:40;;;;;;;1.70;1.20;;;34.90;49.50;;;36.04;41.88;100560.00;5211081;28;20120;-84
2022/08/04 10:48:23;;;;;;;1.15;1.00;;;34.70;49.60;;;35.88;41.97;100554.84;5209810;28;20034;-83
2022/08/04 10:51:06;;;;;;;2.55;1.33;;;34.60;49.60;;;35.85;42.32;100560.50;5192749;28;20514;-83
2022/08/04 10:53:39;;;;;;;3.00;1.30;;;34.60;50.20;;;35.80;41.95;100561.81;5195510;28;20045;-85
2022/08/04 10:56:18;;;;;;;;;;;34.50;49.80;;;35.74;41.69;100555.03;5195150;28;20427;-84
2022/08/04 10:58:54;;;;;;;2.50;1.20;;;34.50;49.80;;;35.84;41.71;100561.47;5179163;28;20388;-86
2022/08/04 11:01:33;;;;;;;1.98;1.00;;;34.50;49.80;;;36.04;41.60;100562.72;5194819;28;20046;-84
2022/08/04 11:04:12;;;;;;;1.52;1.15;;;34.70;49.80;;;36.42;41.37;100557.13;5188660;28;20049;-85
2022/08/04 11:06:47;;;;;;;2.13;1.23;;;34.90;49.40;;;36.67;40.13;100555.22;5184428;28;20048;-84
2022/08/04 11:09:20;;;;;;;2.25;1.13;;;35.20;48.70;;;36.90;40.26;100559.72;5207160;28;20099;-84
2022/08/04 11:11:55;;;;;;;;;;;35.40;48.70;;;37.15;40.20;100561.34;5189154;28;20050;-84
2022/08/04 11:14:33;;;;;;;3.08;1.23;;;35.60;48.80;;;37.45;38.67;100560.75;5171766;28;19925;-85
2022/08/04 11:17:11;;;;;;;2.38;1.70;;;35.90;47.40;;;37.62;39.25;100555.78;5171115;28;20054;-85
2022/08/04 11:19:56;;;;;;;3.63;1.75;;;36.10;47.60;;;37.63;39.06;100557.53;5171169;28;20053;-84
2022/08/04 11:22:30;;;;;;;3.65;1.52;;;36.20;47.40;;;37.68;38.22;100560.72;5170802;28;20053;-86
2022/08/04 11:25:13;;;;;;;1.75;1.30;;;36.30;46.70;;;37.61;38.01;100557.66;5170929;28;20054;-84
2022/08/04 11:28:01;;;;;;;2.42;1.25;;;36.30;46.50;;;37.58;39.45;100551.59;5189057;28;20038;-85